Terminal Aerodrome Forecast
Issued by NWS Mt. Holly, NJ

Home | Current Version | Previous Version | Text Only | Print | Product List | Glossary On
Versions: 1 2 3 4 5 6 7 8 9 10 11 12 13 14 15 16 17 18 19 20 21 22 23
000
FTUS41 KPHI 011100
TAFACY
TAF
KACY 011124Z 0112/0212 02016G26KT 5SM -RA OVC015
      TEMPO 0112/0115 3SM RA BR BKN009 OVC015
     FM011700 01020G30KT 5SM -RA OVC025
     FM012100 36020G30KT 6SM -RA OVC035
     FM020200 33018G28KT P6SM OVC035=

USA.gov is the U.S. government's official web portal to all federal, state and local government web resources and services.